Time;durP1;ratioP1;P1;durP2;ratioP2;P2;SDS_P1;SDS_P2;PMS_P1;PMS_P2;Temp;Humidity;BMP_temperature;BMP_pressure;BME280_temperature;BME280_humidity;BME280_pressure;Samples;Min_cycle;Max_cycle;Signal;HPM_P1;HPM_P2
2022/07/12 00:00:01;;;;;;;5.72;2.85;;;;;;;;;;5014139;28;20022;-81
2022/07/12 00:02:28;;;;;;;5.35;2.80;;;;;;;;;;5015028;28;20060;-81
2022/07/12 00:04:54;;;;;;;6.03;3.22;;;;;;;;;;5015140;28;20050;-82
2022/07/12 00:07:20;;;;;;;5.22;2.38;;;;;;;;;;5020047;28;20053;-82
2022/07/12 00:09:46;;;;;;;4.68;2.30;;;;;;;;;;5017802;28;20378;-80
2022/07/12 00:12:12;;;;;;;5.43;2.10;;;;;;;;;;5015233;28;20050;-82
2022/07/12 00:14:38;;;;;;;3.83;1.70;;;;;;;;;;5014251;28;20026;-80
2022/07/12 00:17:05;;;;;;;4.32;1.77;;;;;;;;;;5014176;28;20053;-79
2022/07/12 00:19:32;;;;;;;3.75;1.50;;;;;;;;;;5015754;28;20029;-81
2022/07/12 00:21:58;;;;;;;2.45;1.27;;;;;;;;;;5015945;28;20449;-80
2022/07/12 00:24:24;;;;;;;4.03;1.42;;;;;;;;;;5014695;28;20033;-81
2022/07/12 00:26:51;;;;;;;4.18;1.27;;;;;;;;;;5013621;28;20026;-79
2022/07/12 00:29:18;;;;;;;4.88;1.40;;;;;;;;;;5013945;28;20092;-82
2022/07/12 00:31:44;;;;;;;3.83;1.30;;;;;;;;;;5014950;28;20594;-81
2022/07/12 00:34:10;;;;;;;3.88;1.38;;;;;;;;;;5014409;28;20052;-79
2022/07/12 00:36:36;;;;;;;3.88;1.40;;;;;;;;;;5014299;28;20029;-81
2022/07/12 00:39:03;;;;;;;3.60;1.40;;;;;;;;;;5015498;28;20029;-81
2022/07/12 00:41:30;;;;;;;3.03;1.30;;;;;;;;;;5014185;28;20036;-82
2022/07/12 00:43:56;;;;;;;3.92;1.42;;;;;;;;;;5015401;28;20505;-79
2022/07/12 00:46:23;;;;;;;2.88;1.10;;;;;;;;;;5014011;28;20025;-81
2022/07/12 00:48:50;;;;;;;3.17;1.10;;;;;;;;;;5014385;28;20471;-81
2022/07/12 00:51:18;;;;;;;3.35;1.10;;;;;;;;;;5013994;28;20038;-81
2022/07/12 00:53:45;;;;;;;2.42;1.20;;;;;;;;;;5014212;28;20022;-82
2022/07/12 00:56:13;;;;;;;3.72;1.30;;;;;;;;;;5013840;28;20053;-81
2022/07/12 00:58:40;;;;;;;2.65;1.20;;;;;;;;;;5015137;28;20033;-81
2022/07/12 01:01:06;;;;;;;2.38;1.10;;;;;;;;;;5014513;28;20033;-80
2022/07/12 01:03:33;;;;;;;3.65;1.10;;;;;;;;;;5013843;28;20026;-81
2022/07/12 01:05:59;;;;;;;3.45;1.25;;;;;;;;;;5014022;28;20093;-82
2022/07/12 01:08:26;;;;;;;3.38;1.40;;;;;;;;;;5015182;28;20045;-81
2022/07/12 01:10:53;;;;;;;2.55;1.17;;;;;;;;;;5013899;28;20026;-82
2022/07/12 01:13:19;;;;;;;3.60;1.38;;;;;;;;;;5013518;28;20495;-79
2022/07/12 01:15:51;;;;;;;2.53;1.20;;;;;;;;;;5014725;28;20056;-81
2022/07/12 01:18:18;;;;;;;3.72;1.40;;;;;;;;;;5015007;28;20101;-82
2022/07/12 01:20:45;;;;;;;3.45;1.20;;;;;;;;;;5013527;28;20116;-81
2022/07/12 01:23:12;;;;;;;2.85;1.13;;;;;;;;;;5013108;28;20026;-80
2022/07/12 01:25:38;;;;;;;3.90;1.10;;;;;;;;;;5013372;28;20364;-82
2022/07/12 01:28:05;;;;;;;3.80;1.05;;;;;;;;;;5012432;28;20383;-80
2022/07/12 01:30:31;;;;;;;2.97;1.17;;;;;;;;;;5014899;28;20438;-82
2022/07/12 01:32:59;;;;;;;4.05;1.15;;;;;;;;;;5012694;28;20510;-81
2022/07/12 01:35:25;;;;;;;3.03;1.35;;;;;;;;;;5013538;28;20076;-82
2022/07/12 01:37:51;;;;;;;2.80;1.10;;;;;;;;;;5012999;28;20026;-81
2022/07/12 01:40:18;;;;;;;4.50;1.10;;;;;;;;;;5014721;28;20093;-81
2022/07/12 01:42:44;;;;;;;3.28;1.17;;;;;;;;;;5014467;28;20471;-81
2022/07/12 01:45:10;;;;;;;2.75;1.00;;;;;;;;;;5013315;28;20022;-81
2022/07/12 01:47:37;;;;;;;3.33;1.23;;;;;;;;;;5013302;28;20057;-79
2022/07/12 01:50:07;;;;;;;3.40;1.10;;;;;;;;;;5012858;28;20084;-81
2022/07/12 01:52:34;;;;;;;4.18;1.17;;;;;;;;;;5013507;28;20088;-81
2022/07/12 01:55:01;;;;;;;2.95;1.25;;;;;;;;;;5014124;28;20076;-81
2022/07/12 01:57:27;;;;;;;5.35;1.38;;;;;;;;;;5013018;28;20030;-81
2022/07/12 01:59:54;;;;;;;2.55;1.20;;;;;;;;;;5014333;28;20029;-79
2022/07/12 02:02:20;;;;;;;2.40;1.27;;;;;;;;;;5012456;28;20026;-79
2022/07/12 02:04:46;;;;;;;3.10;1.40;;;;;;;;;;5012791;28;20034;-81
2022/07/12 02:07:12;;;;;;;3.15;1.30;;;;;;;;;;5017886;28;20050;-77
2022/07/12 02:09:39;;;;;;;3.53;1.23;;;;;;;;;;5014358;28;20077;-81
2022/07/12 02:12:05;;;;;;;3.78;1.30;;;;;;;;;;5014265;28;20066;-81
2022/07/12 02:14:31;;;;;;;3.63;1.23;;;;;;;;;;5014426;28;20509;-79
2022/07/12 02:16:58;;;;;;;3.08;1.20;;;;;;;;;;5012602;28;20080;-81
2022/07/12 02:19:24;;;;;;;3.83;1.48;;;;;;;;;;5014235;28;20114;-81
2022/07/12 02:21:50;;;;;;;3.88;1.42;;;;;;;;;;5013076;28;20053;-81
2022/07/12 02:24:16;;;;;;;2.58;1.33;;;;;;;;;;5014220;28;20142;-81
2022/07/12 02:26:43;;;;;;;5.85;1.50;;;;;;;;;;5013010;28;20077;-80
2022/07/12 02:29:10;;;;;;;2.75;1.40;;;;;;;;;;5012863;28;20032;-80
2022/07/12 02:31:37;;;;;;;2.85;1.30;;;;;;;;;;5013313;28;20034;-81
2022/07/12 02:34:04;;;;;;;3.97;1.42;;;;;;;;;;5012065;28;20073;-81
2022/07/12 02:36:30;;;;;;;6.50;1.75;;;;;;;;;;5013105;28;20018;-79
2022/07/12 02:38:56;;;;;;;2.45;1.33;;;;;;;;;;5013877;28;20034;-81
2022/07/12 02:41:22;;;;;;;4.35;1.52;;;;;;;;;;5012721;28;20037;-79
2022/07/12 02:43:48;;;;;;;3.90;1.40;;;;;;;;;;5012777;28;20030;-81
2022/07/12 02:46:15;;;;;;;4.20;1.30;;;;;;;;;;5013485;28;20026;-81
2022/07/12 02:48:41;;;;;;;3.88;1.60;;;;;;;;;;5012747;28;20032;-81
2022/07/12 02:51:08;;;;;;;5.72;1.50;;;;;;;;;;5017372;28;20563;-81
2022/07/12 02:53:35;;;;;;;4.18;1.58;;;;;;;;;;5016913;28;20426;-81
2022/07/12 02:56:01;;;;;;;5.63;1.92;;;;;;;;;;5017563;28;20080;-81
2022/07/12 02:58:27;;;;;;;3.35;1.70;;;;;;;;;;5016842;28;20029;-79
2022/07/12 03:00:53;;;;;;;4.97;1.77;;;;;;;;;;5016310;28;20034;-82
2022/07/12 03:03:20;;;;;;;5.05;2.00;;;;;;;;;;5015446;28;20462;-81
2022/07/12 03:05:46;;;;;;;3.83;1.92;;;;;;;;;;5016980;28;20061;-81
2022/07/12 03:08:13;;;;;;;3.72;1.92;;;;;;;;;;5015694;28;20133;-81
2022/07/12 03:10:39;;;;;;;4.32;1.55;;;;;;;;;;5015896;28;20076;-81
2022/07/12 03:13:07;;;;;;;4.22;1.80;;;;;;;;;;5017314;28;20037;-81
2022/07/12 03:15:33;;;;;;;3.50;1.42;;;;;;;;;;5015641;28;20051;-81
2022/07/12 03:18:03;;;;;;;4.63;1.60;;;;;;;;;;5015514;28;20022;-80
2022/07/12 03:20:30;;;;;;;4.80;1.73;;;;;;;;;;5015961;28;20446;-81
2022/07/12 03:22:57;;;;;;;5.18;1.80;;;;;;;;;;5017530;28;20045;-81
2022/07/12 03:25:23;;;;;;;5.38;1.40;;;;;;;;;;5017183;28;20101;-82
2022/07/12 03:27:49;;;;;;;3.53;1.48;;;;;;;;;;5016850;28;20022;-81
2022/07/12 03:30:16;;;;;;;3.85;1.50;;;;;;;;;;5015718;28;20030;-81
2022/07/12 03:32:43;;;;;;;3.88;1.70;;;;;;;;;;5015572;28;20049;-80
2022/07/12 03:35:11;;;;;;;5.40;1.70;;;;;;;;;;5014935;28;20026;-81
2022/07/12 03:37:44;;;;;;;3.47;1.38;;;;;;;;;;5017069;28;20026;-81
2022/07/12 03:40:11;;;;;;;4.15;1.50;;;;;;;;;;5015883;28;20029;-80
2022/07/12 03:42:37;;;;;;;4.80;1.65;;;;;;;;;;5017049;28;20034;-81
2022/07/12 03:45:04;;;;;;;4.47;1.63;;;;;;;;;;5017331;28;20022;-81
2022/07/12 03:47:31;;;;;;;3.75;1.77;;;;;;;;;;5015757;28;20061;-81
2022/07/12 03:49:57;;;;;;;5.78;1.70;;;;;;;;;;5015421;28;20023;-81
2022/07/12 03:52:24;;;;;;;4.20;1.80;;;;;;;;;;5015734;28;20398;-82
2022/07/12 03:54:50;;;;;;;4.28;1.40;;;;;;;;;;5016837;28;20032;-81
2022/07/12 03:57:17;;;;;;;5.72;1.75;;;;;;;;;;5015416;28;20437;-81
2022/07/12 03:59:43;;;;;;;5.88;1.90;;;;;;;;;;5014728;28;20030;-79
2022/07/12 04:02:10;;;;;;;6.35;1.80;;;;;;;;;;5014076;28;20398;-81
2022/07/12 04:04:37;;;;;;;4.45;1.80;;;;;;;;;;5015190;28;20487;-81
2022/07/12 04:07:03;;;;;;;6.30;1.77;;;;;;;;;;5014406;28;20124;-81
2022/07/12 04:09:29;;;;;;;3.20;1.60;;;;;;;;;;5014103;28;20058;-81
2022/07/12 04:11:55;;;;;;;5.95;1.50;;;;;;;;;;5014921;28;20029;-80
2022/07/12 04:14:21;;;;;;;6.13;1.48;;;;;;;;;;5016362;28;20033;-80
2022/07/12 04:16:48;;;;;;;7.13;1.65;;;;;;;;;;5014841;28;20021;-82
2022/07/12 04:19:14;;;;;;;7.28;1.85;;;;;;;;;;5014905;28;20132;-81
2022/07/12 04:21:40;;;;;;;3.65;1.30;;;;;;;;;;5014216;28;20038;-81
2022/07/12 04:24:07;;;;;;;3.42;1.30;;;;;;;;;;5015093;28;20041;-82
2022/07/12 04:26:33;;;;;;;5.18;1.77;;;;;;;;;;5015599;28;20084;-81
2022/07/12 04:28:59;;;;;;;3.38;1.52;;;;;;;;;;5014462;28;20030;-82
2022/07/12 04:31:26;;;;;;;4.18;1.40;;;;;;;;;;5015600;28;20073;-80
2022/07/12 04:33:52;;;;;;;3.25;1.42;;;;;;;;;;5014337;28;20026;-81
2022/07/12 04:36:18;;;;;;;5.40;1.70;;;;;;;;;;5014299;28;20397;-81
2022/07/12 04:38:44;;;;;;;5.57;1.80;;;;;;;;;;5015059;28;20026;-81
2022/07/12 04:41:10;;;;;;;3.88;1.50;;;;;;;;;;5014203;28;20025;-82
2022/07/12 04:43:37;;;;;;;4.18;1.85;;;;;;;;;;5015248;28;20534;-82
2022/07/12 04:46:13;;;;;;;4.10;1.45;;;;;;;;;;5006962;28;20052;-81
2022/07/12 04:48:39;;;;;;;3.40;1.88;;;;;;;;;;4994934;28;20027;-81
2022/07/12 04:51:05;;;;;;;4.18;1.83;;;;;;;;;;4994651;28;20026;-81
2022/07/12 04:53:31;;;;;;;4.70;1.50;;;;;;;;;;4994300;28;20391;-82
2022/07/12 04:56:04;;;;;;;4.50;1.63;;;;;;;;;;4995936;28;20027;-82
2022/07/12 04:58:30;;;;;;;4.35;1.60;;;;;;;;;;4994588;28;20030;-82
2022/07/12 05:00:56;;;;;;;3.35;1.42;;;;;;;;;;4994853;28;20041;-80
2022/07/12 05:03:26;;;;;;;5.25;1.42;;;;;;;;;;4994607;28;20426;-81
2022/07/12 05:05:53;;;;;;;5.05;1.95;;;;;;;;;;4994326;28;20132;-81
2022/07/12 05:08:19;;;;;;;5.28;1.65;;;;;;;;;;4995643;28;20050;-81
2022/07/12 05:10:45;;;;;;;7.50;1.70;;;;;;;;;;4995795;28;20349;-82
2022/07/12 05:13:11;;;;;;;3.38;1.50;;;;;;;;;;4992578;28;20030;-79
2022/07/12 05:15:37;;;;;;;6.35;1.77;;;;;;;;;;4994428;28;20037;-80
2022/07/12 05:18:04;;;;;;;3.88;1.50;;;;;;;;;;4995308;28;20105;-81
2022/07/12 05:20:31;;;;;;;4.57;1.70;;;;;;;;;;5000074;28;20566;-81
2022/07/12 05:22:57;;;;;;;5.30;1.60;;;;;;;;;;4983156;28;20038;-82
2022/07/12 05:25:23;;;;;;;4.72;1.35;;;;;;;;;;4998704;28;20049;-82
2022/07/12 05:27:49;;;;;;;4.63;1.38;;;;;;;;;;4996649;28;20030;-81
2022/07/12 05:30:15;;;;;;;6.22;1.63;;;;;;;;;;4996779;28;20035;-81
2022/07/12 05:32:41;;;;;;;5.93;1.77;;;;;;;;;;4995983;28;20502;-81
2022/07/12 05:35:08;;;;;;;8.02;1.38;;;;;;;;;;4998940;28;20076;-81
2022/07/12 05:37:34;;;;;;;5.63;1.50;;;;;;;;;;4997540;28;20116;-79
2022/07/12 05:40:00;;;;;;;6.10;1.23;;;;;;;;;;4995167;28;20026;-81
2022/07/12 05:42:26;;;;;;;6.97;1.73;;;;;;;;;;4993924;28;20042;-81
2022/07/12 05:44:53;;;;;;;3.47;1.25;;;;;;;;;;4994057;28;20045;-80
2022/07/12 05:47:19;;;;;;;6.40;1.38;;;;;;;;;;4995181;28;20133;-82
2022/07/12 05:49:45;;;;;;;5.68;1.30;;;;;;;;;;4991091;28;20431;-80
2022/07/12 05:54:56;;;;;;;6.25;1.33;;;;;;;;;;4985640;28;20037;-80
2022/07/12 05:57:22;;;;;;;3.67;1.00;;;;;;;;;;4973915;28;20022;-80
2022/07/12 05:59:48;;;;;;;7.70;0.98;;;;;;;;;;4973936;28;20039;-78
2022/07/12 06:02:14;;;;;;;6.15;1.08;;;;;;;;;;4999705;28;20049;-80
2022/07/12 06:04:40;;;;;;;6.18;0.75;;;;;;;;;;5000025;28;20030;-79
2022/07/12 06:07:07;;;;;;;4.85;0.57;;;;;;;;;;5000689;28;20172;-78
2022/07/12 06:09:33;;;;;;;3.60;0.60;;;;;;;;;;5002913;28;20041;-77
2022/07/12 06:11:59;;;;;;;2.47;0.57;;;;;;;;;;5003804;28;20033;-79
2022/07/12 06:14:25;;;;;;;4.57;0.60;;;;;;;;;;4992453;28;20026;-82
2022/07/12 06:16:51;;;;;;;1.23;0.57;;;;;;;;;;4994513;28;20023;-83
2022/07/12 06:19:17;;;;;;;5.13;0.60;;;;;;;;;;4992961;28;20061;-84
2022/07/12 06:21:43;;;;;;;2.17;0.70;;;;;;;;;;4999800;28;20044;-82
2022/07/12 06:24:09;;;;;;;4.88;0.70;;;;;;;;;;5004882;28;20026;-81
2022/07/12 06:26:35;;;;;;;2.78;0.80;;;;;;;;;;5012114;28;20033;-81
2022/07/12 06:29:02;;;;;;;1.60;0.43;;;;;;;;;;5016185;28;20071;-80
2022/07/12 06:31:28;;;;;;;2.95;0.50;;;;;;;;;;5015777;28;20386;-82
2022/07/12 06:33:54;;;;;;;2.80;0.82;;;;;;;;;;5008154;28;20090;-82
2022/07/12 06:36:20;;;;;;;2.45;0.50;;;;;;;;;;4996494;28;20506;-77
2022/07/12 06:38:46;;;;;;;1.98;0.68;;;;;;;;;;4996906;28;20033;-81
2022/07/12 06:41:13;;;;;;;2.58;0.93;;;;;;;;;;4996396;28;20108;-84
2022/07/12 06:43:39;;;;;;;2.65;0.80;;;;;;;;;;4996333;28;20018;-83
2022/07/12 06:46:05;;;;;;;3.67;0.88;;;;;;;;;;4996960;28;20050;-83
2022/07/12 06:48:31;;;;;;;5.60;1.23;;;;;;;;;;4996749;28;20030;-83
2022/07/12 06:50:57;;;;;;;2.63;1.20;;;;;;;;;;4996197;28;20030;-80
2022/07/12 06:53:24;;;;;;;2.42;0.90;;;;;;;;;;4996559;28;20022;-80
2022/07/12 06:55:50;;;;;;;3.70;1.10;;;;;;;;;;4996402;28;20035;-83
2022/07/12 06:58:16;;;;;;;6.22;1.00;;;;;;;;;;4998398;28;20033;-83
2022/07/12 07:00:42;;;;;;;3.03;1.35;;;;;;;;;;4997256;28;20474;-81
2022/07/12 07:03:09;;;;;;;2.33;0.68;;;;;;;;;;4997846;28;20031;-86
2022/07/12 07:05:38;;;;;;;3.40;0.90;;;;;;;;;;4996545;28;20073;-82
2022/07/12 07:08:05;;;;;;;2.97;0.90;;;;;;;;;;4999709;28;20133;-81
2022/07/12 07:10:33;;;;;;;2.85;0.80;;;;;;;;;;5004514;28;20037;-82
2022/07/12 07:12:59;;;;;;;3.22;0.82;;;;;;;;;;4995394;28;20054;-81
2022/07/12 07:15:26;;;;;;;2.22;1.02;;;;;;;;;;4995698;28;20030;-80
2022/07/12 07:17:52;;;;;;;3.20;1.10;;;;;;;;;;5012394;28;20029;-82
2022/07/12 07:20:19;;;;;;;1.95;0.73;;;;;;;;;;5007012;28;20030;-83
2022/07/12 07:22:45;;;;;;;3.78;1.00;;;;;;;;;;4996249;28;20125;-82
2022/07/12 07:25:11;;;;;;;2.42;0.80;;;;;;;;;;4995658;28;20041;-81
2022/07/12 07:27:38;;;;;;;2.72;0.73;;;;;;;;;;4995235;28;20478;-85
2022/07/12 07:32:50;;;;;;;2.65;0.88;;;;;;;;;;4997054;28;20042;-86
2022/07/12 07:35:16;;;;;;;5.22;0.98;;;;;;;;;;4995921;28;20106;-79
2022/07/12 07:37:42;;;;;;;3.03;0.73;;;;;;;;;;4995661;28;20045;-76
2022/07/12 07:40:09;;;;;;;2.72;0.70;;;;;;;;;;4995423;28;20054;-78
2022/07/12 07:42:35;;;;;;;3.08;0.70;;;;;;;;;;4996056;28;20034;-79
2022/07/12 07:45:03;;;;;;;4.50;0.70;;;;;;;;;;4996456;28;20486;-84
2022/07/12 07:47:29;;;;;;;2.22;0.70;;;;;;;;;;4995304;28;20054;-81
2022/07/12 07:49:56;;;;;;;3.42;0.70;;;;;;;;;;4997623;28;20042;-80
2022/07/12 07:52:22;;;;;;;1.40;0.60;;;;;;;;;;4997679;28;20030;-78
2022/07/12 07:54:48;;;;;;;2.50;0.60;;;;;;;;;;4995127;28;20037;-77
2022/07/12 07:57:14;;;;;;;1.30;0.57;;;;;;;;;;4995665;28;20459;-77
2022/07/12 07:59:40;;;;;;;1.38;0.40;;;;;;;;;;4995344;28;20022;-82
2022/07/12 08:02:06;;;;;;;2.10;0.50;;;;;;;;;;4997009;28;20062;-80
2022/07/12 08:04:32;;;;;;;1.77;0.45;;;;;;;;;;4994951;28;20030;-79
2022/07/12 08:06:58;;;;;;;2.42;1.00;;;;;;;;;;4994825;28;20034;-79
2022/07/12 08:09:24;;;;;;;3.25;0.70;;;;;;;;;;4994953;28;20078;-79
2022/07/12 08:11:50;;;;;;;2.53;0.70;;;;;;;;;;4995185;28;20483;-79
2022/07/12 08:14:17;;;;;;;3.90;0.75;;;;;;;;;;4994698;28;20037;-79
2022/07/12 08:16:43;;;;;;;5.45;0.70;;;;;;;;;;4994872;28;20161;-79
2022/07/12 08:19:09;;;;;;;3.92;0.70;;;;;;;;;;4995925;28;20022;-79
2022/07/12 08:21:35;;;;;;;2.17;0.50;;;;;;;;;;4994763;28;20088;-75
2022/07/12 08:24:01;;;;;;;1.98;0.57;;;;;;;;;;4994313;28;20030;-81
2022/07/12 08:26:27;;;;;;;1.52;0.40;;;;;;;;;;4995959;28;20022;-76
2022/07/12 08:28:54;;;;;;;2.83;0.60;;;;;;;;;;4997980;28;20109;-75
2022/07/12 08:31:20;;;;;;;1.40;0.50;;;;;;;;;;5002614;28;20471;-78
2022/07/12 08:33:46;;;;;;;3.20;0.50;;;;;;;;;;5005736;28;20030;-83
2022/07/12 08:36:12;;;;;;;2.42;0.60;;;;;;;;;;5004199;28;20056;-80
2022/07/12 08:38:40;;;;;;;2.40;0.40;;;;;;;;;;4999742;28;20150;-82
2022/07/12 08:41:07;;;;;;;1.20;0.40;;;;;;;;;;4995635;28;20022;-80
2022/07/12 08:43:36;;;;;;;1.75;0.47;;;;;;;;;;4994442;28;20026;-80
2022/07/12 08:46:11;;;;;;;3.00;0.40;;;;;;;;;;4998673;28;20027;-81
2022/07/12 08:48:37;;;;;;;1.08;0.30;;;;;;;;;;5002319;28;20104;-80
2022/07/12 08:51:08;;;;;;;2.80;0.30;;;;;;;;;;5002345;28;20029;-80
2022/07/12 08:53:34;;;;;;;3.70;0.50;;;;;;;;;;5003381;28;20018;-81
2022/07/12 08:56:01;;;;;;;1.83;0.40;;;;;;;;;;4997342;28;20165;-82
2022/07/12 08:58:28;;;;;;;1.63;0.45;;;;;;;;;;4994143;28;20112;-84
2022/07/12 09:00:54;;;;;;;2.00;0.47;;;;;;;;;;4993888;28;20030;-81
2022/07/12 09:03:20;;;;;;;1.77;0.30;;;;;;;;;;4993914;28;20033;-82
2022/07/12 09:05:53;;;;;;;1.27;0.30;;;;;;;;;;4993605;28;20030;-80
2022/07/12 09:08:40;;;;;;;2.20;0.30;;;;;;;;;;4993691;28;20053;-84
2022/07/12 09:11:06;;;;;;;1.15;0.30;;;;;;;;;;4993561;28;20430;-82
2022/07/12 09:13:52;;;;;;;1.90;0.30;;;;;;;;;;4994025;28;20466;-85
2022/07/12 09:16:20;;;;;;;2.42;0.30;;;;;;;;;;4994339;28;20022;-83
2022/07/12 09:18:46;;;;;;;0.88;0.30;;;;;;;;;;4994516;28;20065;-79
2022/07/12 09:21:29;;;;;;;1.70;0.40;;;;;;;;;;4993897;28;20044;-83
2022/07/12 09:23:56;;;;;;;4.82;0.28;;;;;;;;;;4994638;28;20033;-82
2022/07/12 09:26:23;;;;;;;2.88;0.20;;;;;;;;;;4993992;28;20150;-83
2022/07/12 09:28:50;;;;;;;1.58;0.40;;;;;;;;;;4993488;28;20010;-80
2022/07/12 09:31:16;;;;;;;3.42;0.40;;;;;;;;;;4993693;28;20129;-77
2022/07/12 09:36:55;;;;;;;2.03;0.30;;;;;;;;;;4994709;28;20085;-79
2022/07/12 09:39:22;;;;;;;3.30;0.38;;;;;;;;;;4994477;28;20038;-77
2022/07/12 09:41:49;;;;;;;1.33;0.20;;;;;;;;;;4992802;28;20029;-83
2022/07/12 09:44:18;;;;;;;2.13;0.20;;;;;;;;;;4992465;28;20055;-81
2022/07/12 09:46:44;;;;;;;3.65;0.40;;;;;;;;;;4993908;28;20030;-79
2022/07/12 09:49:10;;;;;;;1.30;0.30;;;;;;;;;;4992862;28;20077;-78
2022/07/12 09:51:38;;;;;;;3.42;0.70;;;;;;;;;;4993081;28;20064;-83
2022/07/12 09:54:04;;;;;;;2.17;0.35;;;;;;;;;;4993535;28;20030;-77
2022/07/12 09:56:36;;;;;;;1.80;0.52;;;;;;;;;;4992881;28;20387;-81
2022/07/12 09:59:04;;;;;;;0.93;0.25;;;;;;;;;;4993289;28;20085;-81
2022/07/12 10:01:31;;;;;;;0.20;0.10;;;;;;;;;;4993471;28;20053;-83
2022/07/12 10:03:59;;;;;;;1.65;0.40;;;;;;;;;;4993201;28;20038;-83
2022/07/12 10:06:26;;;;;;;1.20;0.30;;;;;;;;;;4992843;28;20077;-82
2022/07/12 10:08:53;;;;;;;2.47;0.30;;;;;;;;;;4992419;28;20061;-82
2022/07/12 10:11:20;;;;;;;0.73;0.20;;;;;;;;;;4992850;28;20027;-83
2022/07/12 10:13:46;;;;;;;1.30;0.40;;;;;;;;;;4993124;28;20403;-84
2022/07/12 10:16:14;;;;;;;0.85;0.30;;;;;;;;;;4992176;28;20027;-83
2022/07/12 10:18:40;;;;;;;2.08;0.25;;;;;;;;;;4992851;28;20474;-82
2022/07/12 10:21:19;;;;;;;1.80;0.30;;;;;;;;;;4992899;28;20022;-82
2022/07/12 10:23:46;;;;;;;1.65;0.40;;;;;;;;;;4993189;28;20022;-83
2022/07/12 10:26:14;;;;;;;1.90;0.40;;;;;;;;;;4993708;28;20022;-82
2022/07/12 10:28:56;;;;;;;2.70;0.40;;;;;;;;;;4993143;28;20479;-83
2022/07/12 10:31:22;;;;;;;;;;;;;;;;;;4997439;28;20500;-82
2022/07/12 10:33:48;;;;;;;1.25;0.30;;;;;;;;;;5006619;28;19997;-82
2022/07/12 10:36:15;;;;;;;1.30;0.40;;;;;;;;;;4992943;28;20121;-79
2022/07/12 10:38:41;;;;;;;2.55;0.40;;;;;;;;;;4998758;28;20061;-82
2022/07/12 10:41:36;;;;;;;3.80;0.63;;;;;;;;;;5012685;28;20044;-83
2022/07/12 10:44:06;;;;;;;2.00;0.30;;;;;;;;;;4988464;28;20046;-80
2022/07/12 10:46:34;;;;;;;0.93;0.30;;;;;;;;;;5006531;28;20038;-84
2022/07/12 10:49:19;;;;;;;1.00;0.38;;;;;;;;;;4992293;28;20028;-79
2022/07/12 10:52:05;;;;;;;2.92;0.43;;;;;;;;;;4993107;28;20030;-83
2022/07/12 10:54:31;;;;;;;2.47;0.63;;;;;;;;;;4996083;28;20530;-85
2022/07/12 10:56:58;;;;;;;1.83;0.40;;;;;;;;;;4994484;28;20026;-84
2022/07/12 10:59:27;;;;;;;2.17;0.45;;;;;;;;;;4993239;28;20097;-89
2022/07/12 11:01:56;;;;;;;3.10;0.40;;;;;;;;;;4993081;28;20093;-79
2022/07/12 11:04:22;;;;;;;2.08;0.38;;;;;;;;;;4994144;28;20030;-82
2022/07/12 11:06:49;;;;;;;1.60;0.50;;;;;;;;;;4993859;28;20383;-85
2022/07/12 11:09:17;;;;;;;3.60;0.47;;;;;;;;;;4991778;28;20057;-82
2022/07/12 11:11:45;;;;;;;1.70;0.32;;;;;;;;;;4996416;28;20475;-82
2022/07/12 11:14:12;;;;;;;1.67;0.50;;;;;;;;;;4996197;28;20026;-84
2022/07/12 11:16:45;;;;;;;2.08;0.40;;;;;;;;;;4996145;28;20023;-80
2022/07/12 11:19:12;;;;;;;2.30;0.40;;;;;;;;;;4996791;28;20038;-84
2022/07/12 11:21:38;;;;;;;3.35;0.40;;;;;;;;;;4995670;28;20061;-82
2022/07/12 11:24:15;;;;;;;1.17;0.30;;;;;;;;;;4995917;28;20027;-81
2022/07/12 11:26:42;;;;;;;3.92;0.40;;;;;;;;;;4998004;28;20097;-82
2022/07/12 11:29:09;;;;;;;1.50;0.30;;;;;;;;;;4996244;28;20070;-86
2022/07/12 11:31:35;;;;;;;1.50;0.30;;;;;;;;;;4995328;28;20029;-81
2022/07/12 11:34:02;;;;;;;1.17;0.32;;;;;;;;;;4996165;28;20022;-79
2022/07/12 11:36:29;;;;;;;1.65;0.50;;;;;;;;;;4996958;28;20023;-79
2022/07/12 11:38:56;;;;;;;3.17;0.50;;;;;;;;;;4997187;28;20033;-81
2022/07/12 11:41:23;;;;;;;2.05;0.57;;;;;;;;;;4995676;28;20026;-82
2022/07/12 11:43:50;;;;;;;5.13;0.73;;;;;;;;;;4994825;28;20050;-79
2022/07/12 11:46:16;;;;;;;2.45;0.50;;;;;;;;;;4995597;28;20040;-83
2022/07/12 11:48:43;;;;;;;3.50;0.75;;;;;;;;;;4997745;28;20023;-84
2022/07/12 11:51:10;;;;;;;2.17;0.50;;;;;;;;;;4995922;28;20022;-82
2022/07/12 11:53:37;;;;;;;1.80;0.43;;;;;;;;;;4995622;28;20395;-82
2022/07/12 11:56:04;;;;;;;2.70;0.50;;;;;;;;;;4995386;28;20034;-82
2022/07/12 11:58:32;;;;;;;0.93;0.30;;;;;;;;;;4995299;28;20131;-83
2022/07/12 12:00:58;;;;;;;2.08;0.35;;;;;;;;;;4995068;28;20023;-84
2022/07/12 12:03:28;;;;;;;1.40;0.50;;;;;;;;;;4995435;28;20122;-83
2022/07/12 12:05:55;;;;;;;3.38;0.50;;;;;;;;;;4995667;28;20069;-84
2022/07/12 12:08:22;;;;;;;1.92;0.50;;;;;;;;;;4995397;28;20050;-83
2022/07/12 12:10:58;;;;;;;4.18;0.80;;;;;;;;;;4995473;28;20121;-84
2022/07/12 12:13:25;;;;;;;3.10;0.65;;;;;;;;;;4994625;28;20035;-83
2022/07/12 12:15:51;;;;;;;2.83;0.70;;;;;;;;;;4995861;28;20117;-85
2022/07/12 12:18:17;;;;;;;7.47;0.80;;;;;;;;;;4994859;28;20034;-86
2022/07/12 12:20:43;;;;;;;4.88;0.70;;;;;;;;;;5002192;28;20036;-81
2022/07/12 12:23:19;;;;;;;3.58;0.50;;;;;;;;;;5001793;28;20030;-83
2022/07/12 12:25:46;;;;;;;1.45;0.50;;;;;;;;;;5000315;28;20351;-83
2022/07/12 12:28:13;;;;;;;2.63;0.38;;;;;;;;;;5000003;28;20042;-78
2022/07/12 12:30:51;;;;;;;1.77;0.45;;;;;;;;;;4995013;28;20080;-83
2022/07/12 12:33:34;;;;;;;1.38;0.35;;;;;;;;;;4994793;28;20042;-83
2022/07/12 12:36:18;;;;;;;1.45;0.40;;;;;;;;;;4996034;28;20109;-84
2022/07/12 12:38:44;;;;;;;3.05;0.47;;;;;;;;;;4994676;28;20482;-77
2022/07/12 12:41:11;;;;;;;1.80;0.50;;;;;;;;;;4993885;28;20085;-79
2022/07/12 12:43:37;;;;;;;3.95;0.50;;;;;;;;;;4994119;28;20061;-77
2022/07/12 12:46:04;;;;;;;1.40;0.45;;;;;;;;;;4994165;28;20117;-77
2022/07/12 12:48:31;;;;;;;1.50;0.38;;;;;;;;;;4994635;28;20464;-78
2022/07/12 12:51:07;;;;;;;3.10;0.60;;;;;;;;;;4994227;28;20037;-80
2022/07/12 12:53:34;;;;;;;2.42;0.52;;;;;;;;;;4994566;28;20045;-84
2022/07/12 12:56:01;;;;;;;5.65;0.60;;;;;;;;;;4995060;28;20022;-76
2022/07/12 12:58:28;;;;;;;5.10;0.65;;;;;;;;;;4995572;28;20447;-85
2022/07/12 13:00:55;;;;;;;5.47;0.70;;;;;;;;;;4993960;28;20023;-82
2022/07/12 13:03:23;;;;;;;4.78;0.70;;;;;;;;;;4993526;28;20438;-79
2022/07/12 13:05:49;;;;;;;1.38;0.47;;;;;;;;;;4994235;28;20034;-80
2022/07/12 13:08:16;;;;;;;2.67;0.70;;;;;;;;;;4995428;28;20586;-82
2022/07/12 13:10:43;;;;;;;4.28;0.60;;;;;;;;;;4994110;28;20026;-80
2022/07/12 13:13:09;;;;;;;4.32;0.65;;;;;;;;;;4995137;28;20133;-81
2022/07/12 13:15:36;;;;;;;2.90;0.70;;;;;;;;;;4994117;28;20018;-79
2022/07/12 13:18:03;;;;;;;4.65;0.75;;;;;;;;;;4994498;28;20065;-77
2022/07/12 13:20:29;;;;;;;3.13;0.60;;;;;;;;;;4995910;28;20026;-76
2022/07/12 13:22:59;;;;;;;3.42;0.70;;;;;;;;;;4993784;28;20041;-89
2022/07/12 13:25:25;;;;;;;1.88;0.52;;;;;;;;;;4994552;28;20058;-78
2022/07/12 13:27:52;;;;;;;2.60;0.60;;;;;;;;;;4995453;28;20068;-79
2022/07/12 13:30:19;;;;;;;2.20;0.50;;;;;;;;;;4993963;28;20026;-78
2022/07/12 13:32:45;;;;;;;2.10;0.50;;;;;;;;;;4993781;28;20038;-79
2022/07/12 13:35:12;;;;;;;3.13;0.90;;;;;;;;;;4993615;28;20046;-78
2022/07/12 13:37:39;;;;;;;1.67;0.60;;;;;;;;;;4993241;28;20046;-79
2022/07/12 13:40:14;;;;;;;3.75;0.90;;;;;;;;;;4993529;28;20041;-80
2022/07/12 13:42:48;;;;;;;2.55;0.98;;;;;;;;;;4995137;28;20387;-79
2022/07/12 13:45:19;;;;;;;4.00;0.68;;;;;;;;;;4993354;28;20027;-84
2022/07/12 13:47:45;;;;;;;4.78;0.80;;;;;;;;;;4993735;28;20105;-79
2022/07/12 13:50:13;;;;;;;1.92;0.57;;;;;;;;;;4993624;28;20521;-84
2022/07/12 13:52:40;;;;;;;3.35;0.60;;;;;;;;;;4993272;28;20045;-84
2022/07/12 13:55:07;;;;;;;1.67;0.47;;;;;;;;;;4993355;28;20023;-81
2022/07/12 13:57:34;;;;;;;1.70;0.55;;;;;;;;;;4993221;28;20510;-83
2022/07/12 14:00:01;;;;;;;3.33;0.60;;;;;;;;;;4993360;28;20101;-82
2022/07/12 14:02:27;;;;;;;1.67;0.43;;;;;;;;;;4993019;28;20065;-85
2022/07/12 14:04:54;;;;;;;3.15;0.70;;;;;;;;;;4993067;28;20126;-81
2022/07/12 14:07:20;;;;;;;2.28;0.65;;;;;;;;;;4992519;28;20031;-79
2022/07/12 14:09:46;;;;;;;4.30;0.60;;;;;;;;;;4992943;28;20105;-84
2022/07/12 14:12:12;;;;;;;4.40;0.50;;;;;;;;;;4993203;28;20045;-79
2022/07/12 14:17:23;;;;;;;2.13;0.52;;;;;;;;;;4994910;28;20153;-76
2022/07/12 14:19:49;;;;;;;2.83;0.50;;;;;;;;;;4994338;28;20026;-89
2022/07/12 14:22:15;;;;;;;3.17;0.73;;;;;;;;;;4993235;28;20054;-75
2022/07/12 14:24:42;;;;;;;2.50;0.80;;;;;;;;;;4992786;28;20022;-90
2022/07/12 14:27:08;;;;;;;3.25;0.52;;;;;;;;;;4992754;28;20022;-82
2022/07/12 14:29:34;;;;;;;2.58;0.50;;;;;;;;;;4994964;28;20463;-86
2022/07/12 14:32:01;;;;;;;6.25;0.60;;;;;;;;;;4993580;28;20038;-76
2022/07/12 14:34:27;;;;;;;3.17;0.63;;;;;;;;;;4993719;28;20026;-86
2022/07/12 14:36:53;;;;;;;2.13;0.50;;;;;;;;;;5001241;28;20084;-80
2022/07/12 14:39:20;;;;;;;2.03;0.55;;;;;;;;;;5012098;28;20116;-77
2022/07/12 14:41:46;;;;;;;1.73;0.50;;;;;;;;;;5012158;28;20029;-81
2022/07/12 14:44:13;;;;;;;5.07;0.70;;;;;;;;;;4999564;28;20019;-83
2022/07/12 14:46:39;;;;;;;3.38;0.70;;;;;;;;;;4996159;28;20034;-82
2022/07/12 14:49:05;;;;;;;1.83;0.50;;;;;;;;;;4996820;28;20023;-78
2022/07/12 14:51:31;;;;;;;3.05;0.80;;;;;;;;;;4997818;28;20026;-82
2022/07/12 14:53:58;;;;;;;5.65;0.70;;;;;;;;;;4997665;28;20026;-82